sensor_id;sensor_type;location;lat;lon;timestamp;pressure;altitude;pressure_sealevel;temperature;humidity
17873;BME280;36318;42.620;23.338;2023-01-25T00:00:46;93942.22;;;1.08;100.00
17873;BME280;36318;42.620;23.338;2023-01-25T00:03:14;93949.31;;;1.00;100.00
17873;BME280;36318;42.620;23.338;2023-01-25T00:05:41;93950.03;;;1.05;100.00
17873;BME280;36318;42.620;23.338;2023-01-25T00:08:07;93939.69;;;1.08;100.00
17873;BME280;36318;42.620;23.338;2023-01-25T00:10:34;93945.50;;;1.13;100.00
17873;BME280;36318;42.620;23.338;2023-01-25T00:13:01;93948.94;;;1.12;100.00
17873;BME280;36318;42.620;23.338;2023-01-25T00:15:27;93938.72;;;1.12;100.00
17873;BME280;36318;42.620;23.338;2023-01-25T00:17:54;93938.72;;;1.12;100.00
17873;BME280;36318;42.620;23.338;2023-01-25T00:20:22;93938.81;;;1.09;100.00
17873;BME280;36318;42.620;23.338;2023-01-25T00:22:49;93936.50;;;1.02;100.00
17873;BME280;36318;42.620;23.338;2023-01-25T00:25:15;93936.44;;;1.03;100.00
17873;BME280;36318;42.620;23.338;2023-01-25T00:27:42;93937.97;;;1.09;100.00
17873;BME280;36318;42.620;23.338;2023-01-25T00:30:09;93943.81;;;1.12;100.00
17873;BME280;36318;42.620;23.338;2023-01-25T00:32:39;93940.22;;;0.92;100.00
17873;BME280;36318;42.620;23.338;2023-01-25T00:35:09;93945.88;;;1.01;100.00
17873;BME280;36318;42.620;23.338;2023-01-25T00:37:38;93933.97;;;1.00;100.00
17873;BME280;36318;42.620;23.338;2023-01-25T00:40:05;93940.09;;;0.95;100.00
17873;BME280;36318;42.620;23.338;2023-01-25T00:42:32;93941.84;;;0.94;100.00
17873;BME280;36318;42.620;23.338;2023-01-25T00:44:58;93943.38;;;1.00;100.00
17873;BME280;36318;42.620;23.338;2023-01-25T00:47:25;93938.13;;;1.04;100.00
17873;BME280;36318;42.620;23.338;2023-01-25T00:49:51;93945.00;;;1.02;100.00
17873;BME280;36318;42.620;23.338;2023-01-25T00:52:18;93948.50;;;1.00;100.00
17873;BME280;36318;42.620;23.338;2023-01-25T00:54:47;93943.50;;;0.95;100.00
17873;BME280;36318;42.620;23.338;2023-01-25T00:57:14;93948.53;;;0.98;100.00
17873;BME280;36318;42.620;23.338;2023-01-25T00:59:40;93941.75;;;0.97;100.00
17873;BME280;36318;42.620;23.338;2023-01-25T01:02:08;93941.59;;;1.02;100.00
17873;BME280;36318;42.620;23.338;2023-01-25T01:04:35;93939.84;;;1.04;100.00
17873;BME280;36318;42.620;23.338;2023-01-25T01:07:02;93945.00;;;1.02;100.00
17873;BME280;36318;42.620;23.338;2023-01-25T01:09:28;93934.91;;;0.98;100.00
17873;BME280;36318;42.620;23.338;2023-01-25T01:11:57;93938.28;;;1.00;100.00
17873;BME280;36318;42.620;23.338;2023-01-25T01:14:23;93944.19;;;1.00;100.00
17873;BME280;36318;42.620;23.338;2023-01-25T01:16:50;93944.59;;;0.87;100.00
17873;BME280;36318;42.620;23.338;2023-01-25T01:19:17;93944.59;;;0.87;100.00
17873;BME280;36318;42.620;23.338;2023-01-25T01:21:44;93944.00;;;0.79;100.00
17873;BME280;36318;42.620;23.338;2023-01-25T01:24:10;93945.16;;;0.69;100.00
17873;BME280;36318;42.620;23.338;2023-01-25T01:26:37;93943.38;;;0.72;100.00
17873;BME280;36318;42.620;23.338;2023-01-25T01:29:05;93940.38;;;0.58;100.00
17873;BME280;36318;42.620;23.338;2023-01-25T01:31:32;93932.47;;;0.66;100.00
17873;BME280;36318;42.620;23.338;2023-01-25T01:33:59;93855.75;;;0.13;100.00
17873;BME280;36318;42.620;23.338;2023-01-25T01:36:26;93933.22;;;0.69;100.00
17873;BME280;36318;42.620;23.338;2023-01-25T01:38:53;93932.38;;;0.69;100.00
17873;BME280;36318;42.620;23.338;2023-01-25T01:41:20;93929.81;;;0.70;100.00
17873;BME280;36318;42.620;23.338;2023-01-25T01:43:47;93928.03;;;0.72;100.00
17873;BME280;36318;42.620;23.338;2023-01-25T01:46:16;93917.09;;;0.39;100.00
17873;BME280;36318;42.620;23.338;2023-01-25T01:48:46;93919.47;;;0.45;100.00
17873;BME280;36318;42.620;23.338;2023-01-25T01:51:16;93919.16;;;0.56;100.00
17873;BME280;36318;42.620;23.338;2023-01-25T01:53:45;93918.97;;;0.62;100.00
17873;BME280;36318;42.620;23.338;2023-01-25T01:56:14;93912.88;;;0.66;100.00
17873;BME280;36318;42.620;23.338;2023-01-25T01:58:42;93912.81;;;0.69;100.00
17873;BME280;36318;42.620;23.338;2023-01-25T02:01:09;93918.25;;;0.57;100.00
17873;BME280;36318;42.620;23.338;2023-01-25T02:03:38;93913.34;;;0.51;100.00
17873;BME280;36318;42.620;23.338;2023-01-25T02:06:07;93916.44;;;0.62;100.00
17873;BME280;36318;42.620;23.338;2023-01-25T02:08:35;93919.88;;;0.59;100.00
17873;BME280;36318;42.620;23.338;2023-01-25T02:11:05;93915.53;;;0.63;100.00
17873;BME280;36318;42.620;23.338;2023-01-25T02:13:32;93904.28;;;0.69;100.00
17873;BME280;36318;42.620;23.338;2023-01-25T02:16:00;93912.03;;;0.67;100.00
17873;BME280;36318;42.620;23.338;2023-01-25T02:18:27;93911.34;;;0.60;100.00
17873;BME280;36318;42.620;23.338;2023-01-25T02:20:56;93916.53;;;0.57;100.00
17873;BME280;36318;42.620;23.338;2023-01-25T02:23:24;93918.16;;;0.60;100.00
17873;BME280;36318;42.620;23.338;2023-01-25T02:25:53;93912.81;;;0.40;100.00
17873;BME280;36318;42.620;23.338;2023-01-25T02:28:22;93914.41;;;0.44;100.00
17873;BME280;36318;42.620;23.338;2023-01-25T02:30:50;93915.09;;;0.49;100.00
17873;BME280;36318;42.620;23.338;2023-01-25T02:33:17;93921.41;;;0.37;100.00
17873;BME280;36318;42.620;23.338;2023-01-25T02:35:44;93918.72;;;0.42;100.00
17873;BME280;36318;42.620;23.338;2023-01-25T02:38:12;93916.91;;;0.45;100.00
17873;BME280;36318;42.620;23.338;2023-01-25T02:40:40;93920.13;;;0.52;100.00
17873;BME280;36318;42.620;23.338;2023-01-25T02:43:11;93917.56;;;0.23;100.00
17873;BME280;36318;42.620;23.338;2023-01-25T02:45:37;93914.56;;;0.09;100.00
17873;BME280;36318;42.620;23.338;2023-01-25T02:48:04;93911.72;;;-0.12;100.00
17873;BME280;36318;42.620;23.338;2023-01-25T02:50:31;93915.84;;;-0.08;100.00
17873;BME280;36318;42.620;23.338;2023-01-25T02:52:57;93909.28;;;-0.16;100.00
17873;BME280;36318;42.620;23.338;2023-01-25T02:55:24;93911.16;;;-0.23;100.00
17873;BME280;36318;42.620;23.338;2023-01-25T02:57:50;93909.75;;;-0.02;100.00
17873;BME280;36318;42.620;23.338;2023-01-25T03:00:18;93916.44;;;-0.29;100.00
17873;BME280;36318;42.620;23.338;2023-01-25T03:02:45;93919.88;;;-0.30;100.00
17873;BME280;36318;42.620;23.338;2023-01-25T03:05:11;93919.66;;;-0.22;100.00
17873;BME280;36318;42.620;23.338;2023-01-25T03:07:38;93913.50;;;-0.14;100.00
17873;BME280;36318;42.620;23.338;2023-01-25T03:10:05;93916.81;;;-0.12;100.00
17873;BME280;36318;42.620;23.338;2023-01-25T03:12:32;93924.75;;;-0.22;100.00
17873;BME280;36318;42.620;23.338;2023-01-25T03:14:58;93915.81;;;-0.06;100.00
17873;BME280;36318;42.620;23.338;2023-01-25T03:17:26;93911.44;;;-0.03;100.00
17873;BME280;36318;42.620;23.338;2023-01-25T03:19:58;93905.47;;;0.00;100.00
17873;BME280;36318;42.620;23.338;2023-01-25T03:22:24;93911.22;;;0.07;100.00
17873;BME280;36318;42.620;23.338;2023-01-25T03:24:51;93897.16;;;-0.08;100.00
17873;BME280;36318;42.620;23.338;2023-01-25T03:27:17;93905.50;;;-0.02;100.00
17873;BME280;36318;42.620;23.338;2023-01-25T03:29:44;93903.78;;;-0.01;100.00
17873;BME280;36318;42.620;23.338;2023-01-25T03:32:11;93914.97;;;-0.07;100.00
17873;BME280;36318;42.620;23.338;2023-01-25T03:34:39;93905.31;;;0.05;100.00
17873;BME280;36318;42.620;23.338;2023-01-25T03:37:05;93908.13;;;-0.05;100.00
17873;BME280;36318;42.620;23.338;2023-01-25T03:39:32;93907.88;;;0.05;100.00
17873;BME280;36318;42.620;23.338;2023-01-25T03:41:58;93908.59;;;0.10;100.00
17873;BME280;36318;42.620;23.338;2023-01-25T03:44:25;93907.78;;;0.08;100.00
17873;BME280;36318;42.620;23.338;2023-01-25T03:46:52;93906.47;;;-0.06;100.00
17873;BME280;36318;42.620;23.338;2023-01-25T03:49:18;93901.16;;;0.02;100.00
17873;BME280;36318;42.620;23.338;2023-01-25T03:51:46;93898.22;;;-0.15;100.00
17873;BME280;36318;42.620;23.338;2023-01-25T03:54:13;93851.09;;;-0.33;100.00
17873;BME280;36318;42.620;23.338;2023-01-25T03:56:39;93902.09;;;-0.02;100.00
17873;BME280;36318;42.620;23.338;2023-01-25T03:59:06;93900.00;;;-0.19;100.00
17873;BME280;36318;42.620;23.338;2023-01-25T04:01:33;93895.63;;;-0.14;100.00
17873;BME280;36318;42.620;23.338;2023-01-25T04:04:00;93894.41;;;-0.01;100.00
17873;BME280;36318;42.620;23.338;2023-01-25T04:06:26;93903.44;;;-0.20;100.00
17873;BME280;36318;42.620;23.338;2023-01-25T04:08:54;93891.47;;;-0.18;100.00
17873;BME280;36318;42.620;23.338;2023-01-25T04:11:21;93827.81;;;-0.51;100.00
17873;BME280;36318;42.620;23.338;2023-01-25T04:13:48;93893.16;;;-0.17;100.00
17873;BME280;36318;42.620;23.338;2023-01-25T04:16:14;93896.03;;;-0.29;100.00
17873;BME280;36318;42.620;23.338;2023-01-25T04:18:41;93887.25;;;-0.19;100.00
17873;BME280;36318;42.620;23.338;2023-01-25T04:21:08;93891.16;;;-0.06;100.00
17873;BME280;36318;42.620;23.338;2023-01-25T04:23:34;93890.53;;;-0.14;100.00
17873;BME280;36318;42.620;23.338;2023-01-25T04:26:03;93899.84;;;-0.13;100.00
17873;BME280;36318;42.620;23.338;2023-01-25T04:28:30;93888.97;;;-0.19;100.00
17873;BME280;36318;42.620;23.338;2023-01-25T04:30:57;93893.56;;;-0.32;100.00
17873;BME280;36318;42.620;23.338;2023-01-25T04:33:24;93893.31;;;-0.23;100.00
17873;BME280;36318;42.620;23.338;2023-01-25T04:35:51;93899.69;;;-0.07;100.00
17873;BME280;36318;42.620;23.338;2023-01-25T04:38:17;93904.19;;;-0.16;100.00
17873;BME280;36318;42.620;23.338;2023-01-25T04:40:44;93906.84;;;-0.21;100.00
17873;BME280;36318;42.620;23.338;2023-01-25T04:43:12;93919.75;;;-0.27;100.00
17873;BME280;36318;42.620;23.338;2023-01-25T04:45:39;93911.47;;;-0.35;100.00
17873;BME280;36318;42.620;23.338;2023-01-25T04:48:07;93835.19;;;-0.73;100.00
17873;BME280;36318;42.620;23.338;2023-01-25T04:50:35;93906.09;;;-0.24;100.00
17873;BME280;36318;42.620;23.338;2023-01-25T04:53:01;93907.44;;;-0.42;100.00
17873;BME280;36318;42.620;23.338;2023-01-25T04:55:28;93903.47;;;-0.21;100.00
17873;BME280;36318;42.620;23.338;2023-01-25T04:57:54;93902.44;;;-0.14;100.00
17873;BME280;36318;42.620;23.338;2023-01-25T05:00:22;93900.09;;;-0.22;100.00
17873;BME280;36318;42.620;23.338;2023-01-25T05:02:49;93909.78;;;-0.34;100.00
17873;BME280;36318;42.620;23.338;2023-01-25T05:05:16;93907.13;;;-0.30;100.00
17873;BME280;36318;42.620;23.338;2023-01-25T05:07:42;93908.94;;;-0.35;100.00
17873;BME280;36318;42.620;23.338;2023-01-25T05:10:09;93902.19;;;-0.36;100.00
17873;BME280;36318;42.620;23.338;2023-01-25T05:12:36;93904.81;;;-0.39;100.00
17873;BME280;36318;42.620;23.338;2023-01-25T05:15:03;93899.56;;;-0.34;100.00
17873;BME280;36318;42.620;23.338;2023-01-25T05:17:31;93894.59;;;-0.39;100.00
17873;BME280;36318;42.620;23.338;2023-01-25T05:19:58;93894.09;;;-0.21;100.00
17873;BME280;36318;42.620;23.338;2023-01-25T05:22:25;93888.75;;;-0.12;100.00
17873;BME280;36318;42.620;23.338;2023-01-25T05:24:51;93888.97;;;-0.19;100.00
17873;BME280;36318;42.620;23.338;2023-01-25T05:27:18;93890.34;;;-0.08;100.00
17873;BME280;36318;42.620;23.338;2023-01-25T05:29:44;93898.59;;;0.02;100.00
17873;BME280;36318;42.620;23.338;2023-01-25T05:32:12;93900.31;;;0.02;100.00
17873;BME280;36318;42.620;23.338;2023-01-25T05:34:40;93900.00;;;0.12;100.00
17873;BME280;36318;42.620;23.338;2023-01-25T05:37:08;93890.66;;;0.11;100.00
17873;BME280;36318;42.620;23.338;2023-01-25T05:39:35;93894.44;;;-0.02;100.00
17873;BME280;36318;42.620;23.338;2023-01-25T05:42:01;93895.81;;;0.10;100.00
17873;BME280;36318;42.620;23.338;2023-01-25T05:44:28;93901.84;;;0.07;100.00
17873;BME280;36318;42.620;23.338;2023-01-25T05:46:57;93898.00;;;-0.08;100.00
17873;BME280;36318;42.620;23.338;2023-01-25T05:49:23;93904.72;;;-0.05;100.00
17873;BME280;36318;42.620;23.338;2023-01-25T05:51:51;93908.34;;;-0.12;100.00
17873;BME280;36318;42.620;23.338;2023-01-25T05:54:18;93899.69;;;-0.07;100.00
17873;BME280;36318;42.620;23.338;2023-01-25T05:56:44;93899.22;;;0.10;100.00
17873;BME280;36318;42.620;23.338;2023-01-25T05:59:11;93904.97;;;0.17;100.00
17873;BME280;36318;42.620;23.338;2023-01-25T06:01:37;93901.63;;;0.15;100.00
17873;BME280;36318;42.620;23.338;2023-01-25T06:04:04;93906.81;;;0.12;100.00
17873;BME280;36318;42.620;23.338;2023-01-25T06:06:31;93908.28;;;0.20;100.00
17873;BME280;36318;42.620;23.338;2023-01-25T06:08:59;93909.03;;;0.24;100.00
17873;BME280;36318;42.620;23.338;2023-01-25T06:11:26;93844.97;;;-0.58;100.00
17873;BME280;36318;42.620;23.338;2023-01-25T06:13:52;93907.28;;;-0.05;100.00
17873;BME280;36318;42.620;23.338;2023-01-25T06:16:19;93919.16;;;-0.04;100.00
17873;BME280;36318;42.620;23.338;2023-01-25T06:18:45;93911.13;;;0.10;100.00
17873;BME280;36318;42.620;23.338;2023-01-25T06:21:12;93914.44;;;0.13;100.00
17873;BME280;36318;42.620;23.338;2023-01-25T06:23:39;93921.97;;;0.18;100.00
17873;BME280;36318;42.620;23.338;2023-01-25T06:26:08;93924.34;;;0.24;100.00
17873;BME280;36318;42.620;23.338;2023-01-25T06:28:35;93922.22;;;0.09;100.00
17873;BME280;36318;42.620;23.338;2023-01-25T06:31:03;93928.84;;;0.16;100.00
17873;BME280;36318;42.620;23.338;2023-01-25T06:33:30;93923.44;;;0.25;100.00
17873;BME280;36318;42.620;23.338;2023-01-25T06:36:00;93920.34;;;0.15;100.00
17873;BME280;36318;42.620;23.338;2023-01-25T06:38:28;93920.56;;;0.08;100.00
17873;BME280;36318;42.620;23.338;2023-01-25T06:40:57;93927.22;;;0.12;100.00
17873;BME280;36318;42.620;23.338;2023-01-25T06:43:25;93930.97;;;0.00;100.00
17873;BME280;36318;42.620;23.338;2023-01-25T06:45:51;93922.03;;;0.15;100.00
17873;BME280;36318;42.620;23.338;2023-01-25T06:48:18;93923.25;;;0.02;100.00
17873;BME280;36318;42.620;23.338;2023-01-25T06:50:45;93921.41;;;0.07;100.00
17873;BME280;36318;42.620;23.338;2023-01-25T06:53:11;93923.75;;;0.14;100.00
17873;BME280;36318;42.620;23.338;2023-01-25T06:55:38;93919.25;;;0.24;100.00
17873;BME280;36318;42.620;23.338;2023-01-25T06:58:04;93922.13;;;0.12;100.00
17873;BME280;36318;42.620;23.338;2023-01-25T07:00:32;93919.22;;;-0.06;100.00
17873;BME280;36318;42.620;23.338;2023-01-25T07:02:59;93918.81;;;-0.23;100.00
17873;BME280;36318;42.620;23.338;2023-01-25T07:05:26;93917.47;;;-0.04;100.00
17873;BME280;36318;42.620;23.338;2023-01-25T07:07:52;93913.50;;;-0.14;100.00
17873;BME280;36318;42.620;23.338;2023-01-25T07:10:19;93907.13;;;0.01;100.00
17873;BME280;36318;42.620;23.338;2023-01-25T07:12:45;93911.13;;;0.10;100.00
17873;BME280;36318;42.620;23.338;2023-01-25T07:15:12;93912.69;;;0.14;100.00
17873;BME280;36318;42.620;23.338;2023-01-25T07:17:40;93916.06;;;0.16;100.00
17873;BME280;36318;42.620;23.338;2023-01-25T07:20:07;93909.81;;;0.26;100.00
17873;BME280;36318;42.620;23.338;2023-01-25T07:22:33;93907.81;;;0.35;100.00
17873;BME280;36318;42.620;23.338;2023-01-25T07:25:00;93905.06;;;0.43;100.00
17873;BME280;36318;42.620;23.338;2023-01-25T07:27:27;93918.19;;;0.31;100.00
17873;BME280;36318;42.620;23.338;2023-01-25T07:29:53;93921.13;;;-0.14;100.00
17873;BME280;36318;42.620;23.338;2023-01-25T07:32:20;93913.97;;;-0.01;100.00
17873;BME280;36318;42.620;23.338;2023-01-25T07:34:48;93911.91;;;0.12;100.00
17873;BME280;36318;42.620;23.338;2023-01-25T07:37:15;93916.72;;;0.22;100.00
17873;BME280;36318;42.620;23.338;2023-01-25T07:39:41;93922.59;;;0.26;100.00
17873;BME280;36318;42.620;23.338;2023-01-25T07:42:12;93921.41;;;0.37;100.00
17873;BME280;36318;42.620;23.338;2023-01-25T07:44:39;93926.72;;;0.30;100.00
17873;BME280;36318;42.620;23.338;2023-01-25T07:47:05;93923.91;;;0.39;100.00
17873;BME280;36318;42.620;23.338;2023-01-25T07:49:32;93921.13;;;0.46;100.00
17873;BME280;36318;42.620;23.338;2023-01-25T07:52:00;93921.09;;;0.48;100.00
17873;BME280;36318;42.620;23.338;2023-01-25T07:54:26;93927.16;;;0.44;100.00
17873;BME280;36318;42.620;23.338;2023-01-25T07:56:53;93916.94;;;0.44;100.00
17873;BME280;36318;42.620;23.338;2023-01-25T07:59:20;93929.78;;;0.12;100.00
17873;BME280;36318;42.620;23.338;2023-01-25T08:01:47;93934.59;;;0.22;100.00
17873;BME280;36318;42.620;23.338;2023-01-25T08:04:13;93927.84;;;0.21;100.00
17873;BME280;36318;42.620;23.338;2023-01-25T08:06:40;93920.72;;;0.32;100.00
17873;BME280;36318;42.620;23.338;2023-01-25T08:09:10;93921.44;;;0.36;100.00
17873;BME280;36318;42.620;23.338;2023-01-25T08:11:37;93852.16;;;-0.11;100.00
17873;BME280;36318;42.620;23.338;2023-01-25T08:14:03;93923.69;;;0.17;100.00
17873;BME280;36318;42.620;23.338;2023-01-25T08:16:30;93938.13;;;0.18;100.00
17873;BME280;36318;42.620;23.338;2023-01-25T08:18:58;93923.34;;;-0.02;100.00
17873;BME280;36318;42.620;23.338;2023-01-25T08:21:25;93926.53;;;0.07;100.00
17873;BME280;36318;42.620;23.338;2023-01-25T08:23:54;93921.66;;;0.28;100.00
17873;BME280;36318;42.620;23.338;2023-01-25T08:26:22;93918.72;;;0.42;100.00
17873;BME280;36318;42.620;23.338;2023-01-25T08:28:48;93917.56;;;0.23;100.00
17873;BME280;36318;42.620;23.338;2023-01-25T08:31:19;93920.03;;;-0.05;100.00
17873;BME280;36318;42.620;23.338;2023-01-25T08:33:46;93925.97;;;-0.05;100.00
17873;BME280;36318;42.620;23.338;2023-01-25T08:36:13;93911.00;;;0.14;100.00
17873;BME280;36318;42.620;23.338;2023-01-25T08:38:40;93916.41;;;0.33;100.00
17873;BME280;36318;42.620;23.338;2023-01-25T08:41:07;93905.88;;;0.45;100.00
17873;BME280;36318;42.620;23.338;2023-01-25T08:43:36;93898.66;;;0.57;100.00
17873;BME280;36318;42.620;23.338;2023-01-25T08:46:02;93896.63;;;0.69;100.00
17873;BME280;36318;42.620;23.338;2023-01-25T08:48:29;93897.94;;;0.82;100.00
17873;BME280;36318;42.620;23.338;2023-01-25T08:50:56;93898.22;;;0.45;100.00
17873;BME280;36318;42.620;23.338;2023-01-25T08:53:23;93906.22;;;0.62;100.00
17873;BME280;36318;42.620;23.338;2023-01-25T08:55:50;93909.97;;;0.49;100.00
17873;BME280;36318;42.620;23.338;2023-01-25T08:58:16;93905.00;;;0.46;100.00
17873;BME280;36318;42.620;23.338;2023-01-25T09:00:45;93902.47;;;0.44;100.00
17873;BME280;36318;42.620;23.338;2023-01-25T09:03:12;93909.66;;;0.59;100.00
17873;BME280;36318;42.620;23.338;2023-01-25T09:05:39;93912.75;;;0.43;100.00
17873;BME280;36318;42.620;23.338;2023-01-25T09:08:06;93917.72;;;0.17;100.00
17873;BME280;36318;42.620;23.338;2023-01-25T09:10:33;93906.94;;;0.38;100.00
17873;BME280;36318;42.620;23.338;2023-01-25T09:13:00;93902.28;;;0.50;100.00
17873;BME280;36318;42.620;23.338;2023-01-25T09:15:26;93896.13;;;0.57;100.00
17873;BME280;36318;42.620;23.338;2023-01-25T09:17:56;93897.53;;;0.68;100.00
17873;BME280;36318;42.620;23.338;2023-01-25T09:20:23;93893.56;;;0.85;100.00
17873;BME280;36318;42.620;23.338;2023-01-25T09:22:49;93883.78;;;0.98;100.00
17873;BME280;36318;42.620;23.338;2023-01-25T09:25:16;93883.44;;;1.08;100.00
17873;BME280;36318;42.620;23.338;2023-01-25T09:27:43;93877.91;;;1.22;100.00
17873;BME280;36318;42.620;23.338;2023-01-25T09:30:09;93883.56;;;1.32;100.00
17873;BME280;36318;42.620;23.338;2023-01-25T09:32:36;93889.91;;;1.20;100.00
17873;BME280;36318;42.620;23.338;2023-01-25T09:35:05;93881.97;;;1.28;100.00
17873;BME280;36318;42.620;23.338;2023-01-25T09:37:32;93867.69;;;1.47;100.00
17873;BME280;36318;42.620;23.338;2023-01-25T09:39:59;93870.06;;;1.53;100.00
17873;BME280;36318;42.620;23.338;2023-01-25T09:42:30;93856.97;;;1.62;100.00
17873;BME280;36318;42.620;23.338;2023-01-25T09:45:20;93857.78;;;1.62;100.00
17873;BME280;36318;42.620;23.338;2023-01-25T09:47:53;93849.75;;;1.73;100.00
17873;BME280;36318;42.620;23.338;2023-01-25T09:50:32;93844.75;;;1.70;100.00
17873;BME280;36318;42.620;23.338;2023-01-25T09:53:05;93852.78;;;1.59;100.00
17873;BME280;36318;42.620;23.338;2023-01-25T09:55:36;93845.69;;;1.67;100.00
17873;BME280;36318;42.620;23.338;2023-01-25T09:58:03;93847.03;;;1.77;100.00
17873;BME280;36318;42.620;23.338;2023-01-25T10:00:31;93848.53;;;1.83;100.00
17873;BME280;36318;42.620;23.338;2023-01-25T10:02:59;93830.28;;;1.92;100.00
17873;BME280;36318;42.620;23.338;2023-01-25T10:05:29;93834.34;;;1.98;100.00
17873;BME280;36318;42.620;23.338;2023-01-25T10:07:59;93837.47;;;1.83;100.00
17873;BME280;36318;42.620;23.338;2023-01-25T10:10:29;93832.47;;;1.55;100.00
17873;BME280;36318;42.620;23.338;2023-01-25T10:12:58;93819.00;;;1.74;100.00
17873;BME280;36318;42.620;23.338;2023-01-25T10:15:28;93819.81;;;1.75;100.00
17873;BME280;36318;42.620;23.338;2023-01-25T10:17:58;93817.16;;;1.78;100.00
17873;BME280;36318;42.620;23.338;2023-01-25T10:20:28;93816.72;;;1.67;100.00
17873;BME280;36318;42.620;23.338;2023-01-25T10:23:03;93813.59;;;1.59;100.00
17873;BME280;36318;42.620;23.338;2023-01-25T10:25:34;93810.19;;;1.58;100.00
17873;BME280;36318;42.620;23.338;2023-01-25T10:28:05;93808.19;;;1.66;100.00
17873;BME280;36318;42.620;23.338;2023-01-25T10:30:35;93805.25;;;1.77;100.00
17873;BME280;36318;42.620;23.338;2023-01-25T10:33:08;93801.56;;;1.84;100.00
17873;BME280;36318;42.620;23.338;2023-01-25T10:35:36;93800.38;;;1.94;100.00
17873;BME280;36318;42.620;23.338;2023-01-25T10:38:06;93797.81;;;1.94;100.00
17873;BME280;36318;42.620;23.338;2023-01-25T10:40:38;93796.94;;;1.70;100.00
17873;BME280;36318;42.620;23.338;2023-01-25T10:43:10;93789.41;;;1.67;100.00
17873;BME280;36318;42.620;23.338;2023-01-25T10:45:38;93787.03;;;1.86;100.00
17873;BME280;36318;42.620;23.338;2023-01-25T10:48:09;93787.47;;;1.97;100.00
17873;BME280;36318;42.620;23.338;2023-01-25T10:50:41;93783.22;;;1.96;100.00
17873;BME280;36318;42.620;23.338;2023-01-25T10:53:19;93768.75;;;1.95;100.00
17873;BME280;36318;42.620;23.338;2023-01-25T10:55:52;93766.50;;;2.09;100.00
17873;BME280;36318;42.620;23.338;2023-01-25T10:58:28;93763.78;;;2.14;100.00
17873;BME280;36318;42.620;23.338;2023-01-25T11:00:55;93761.50;;;2.06;100.00
17873;BME280;36318;42.620;23.338;2023-01-25T11:03:22;93759.38;;;2.17;100.00
17873;BME280;36318;42.620;23.338;2023-01-25T11:05:52;93761.38;;;2.09;100.00
17873;BME280;36318;42.620;23.338;2023-01-25T11:08:22;93759.59;;;2.11;100.00
17873;BME280;36318;42.620;23.338;2023-01-25T11:10:49;93751.41;;;2.25;100.00
17873;BME280;36318;42.620;23.338;2023-01-25T11:13:17;93752.66;;;2.36;100.00
17873;BME280;36318;42.620;23.338;2023-01-25T11:15:45;93757.56;;;1.98;100.00
17873;BME280;36318;42.620;23.338;2023-01-25T11:18:13;93754.38;;;2.14;100.00
17873;BME280;36318;42.620;23.338;2023-01-25T11:20:41;93758.25;;;2.24;100.00
17873;BME280;36318;42.620;23.338;2023-01-25T11:23:18;93751.16;;;2.09;100.00
17873;BME280;36318;42.620;23.338;2023-01-25T11:25:48;93750.44;;;2.27;100.00
17873;BME280;36318;42.620;23.338;2023-01-25T11:28:15;93747.94;;;2.04;100.00
17873;BME280;36318;42.620;23.338;2023-01-25T11:30:43;93740.88;;;2.11;100.00
17873;BME280;36318;42.620;23.338;2023-01-25T11:33:10;93746.84;;;1.88;100.00
17873;BME280;36318;42.620;23.338;2023-01-25T11:35:39;93743.66;;;2.05;100.00
17873;BME280;36318;42.620;23.338;2023-01-25T11:38:10;93736.16;;;2.22;100.00
17873;BME280;36318;42.620;23.338;2023-01-25T11:40:40;93735.34;;;2.21;100.00
17873;BME280;36318;42.620;23.338;2023-01-25T11:43:15;93731.81;;;2.24;100.00
17873;BME280;36318;42.620;23.338;2023-01-25T11:45:55;93727.81;;;2.17;100.00
17873;BME280;36318;42.620;23.338;2023-01-25T11:48:30;93723.66;;;2.14;100.00
17873;BME280;36318;42.620;23.338;2023-01-25T11:51:01;93722.69;;;2.17;100.00
17873;BME280;36318;42.620;23.338;2023-01-25T11:53:39;93717.50;;;1.97;100.00
17873;BME280;36318;42.620;23.338;2023-01-25T11:56:08;93707.53;;;2.12;100.00
17873;BME280;36318;42.620;23.338;2023-01-25T11:58:44;93713.00;;;2.25;100.00
17873;BME280;36318;42.620;23.338;2023-01-25T12:01:16;93708.66;;;2.27;100.00
17873;BME280;36318;42.620;23.338;2023-01-25T12:04:06;93706.47;;;2.38;100.00
17873;BME280;36318;42.620;23.338;2023-01-25T12:06:45;93708.25;;;2.37;100.00
17873;BME280;36318;42.620;23.338;2023-01-25T12:09:21;93712.41;;;2.40;100.00
17873;BME280;36318;42.620;23.338;2023-01-25T12:12:06;93701.44;;;2.36;100.00
17873;BME280;36318;42.620;23.338;2023-01-25T12:14:49;93700.66;;;2.34;100.00
17873;BME280;36318;42.620;23.338;2023-01-25T12:17:22;93702.19;;;2.38;100.00
17873;BME280;36318;42.620;23.338;2023-01-25T12:19:53;93706.38;;;2.41;100.00
17873;BME280;36318;42.620;23.338;2023-01-25T12:22:36;93700.56;;;2.37;100.00
17873;BME280;36318;42.620;23.338;2023-01-25T12:25:12;93693.31;;;2.27;100.00
17873;BME280;36318;42.620;23.338;2023-01-25T12:27:44;93696.13;;;2.19;100.00
17873;BME280;36318;42.620;23.338;2023-01-25T12:30:19;93690.97;;;2.21;100.00
17873;BME280;36318;42.620;23.338;2023-01-25T12:32:49;93693.31;;;2.05;100.00
17873;BME280;36318;42.620;23.338;2023-01-25T12:35:21;93693.53;;;2.21;100.00
17873;BME280;36318;42.620;23.338;2023-01-25T12:37:50;93697.63;;;2.25;100.00
17873;BME280;36318;42.620;23.338;2023-01-25T12:40:20;93685.53;;;2.28;100.00
17873;BME280;36318;42.620;23.338;2023-01-25T12:42:49;93694.38;;;2.21;100.00
17873;BME280;36318;42.620;23.338;2023-01-25T12:45:20;93681.50;;;2.23;100.00
17873;BME280;36318;42.620;23.338;2023-01-25T12:47:48;93674.00;;;2.18;100.00
17873;BME280;36318;42.620;23.338;2023-01-25T12:50:17;93671.97;;;2.26;100.00
17873;BME280;36318;42.620;23.338;2023-01-25T12:52:46;93681.31;;;2.27;100.00